Time;durP1;ratioP1;P1;durP2;ratioP2;P2;SDS_P1;SDS_P2;PMS_P1;PMS_P2;Temp;Humidity;BMP_temperature;BMP_pressure;BME280_temperature;BME280_humidity;BME280_pressure;Samples;Min_cycle;Max_cycle;Signal;HPM_P1;HPM_P2
2023/08/13 00:00:25;;;;;;;2.90;1.93;;;;;;;22.80;42.07;101511.72;5011613;28;20392;-70
2023/08/13 00:02:51;;;;;;;4.67;2.20;;;;;;;22.85;42.10;101508.31;5010772;28;20431;-70
2023/08/13 00:05:16;;;;;;;2.90;2.15;;;;;;;22.88;41.77;101505.16;5012262;28;20535;-70
2023/08/13 00:07:41;;;;;;;2.97;2.10;;;;;;;22.87;41.97;101501.63;5018138;28;20397;-70
2023/08/13 00:10:07;;;;;;;4.10;2.17;;;;;;;22.92;41.84;101511.72;5023790;28;20390;-71
2023/08/13 00:12:33;;;;;;;2.50;2.00;;;;;;;22.85;41.96;101503.75;5029258;28;20484;-69
2023/08/13 00:14:59;;;;;;;4.70;2.03;;;;;;;22.94;41.75;101506.09;5029398;28;20370;-69
2023/08/13 00:17:25;;;;;;;2.33;1.92;;;;;;;22.90;41.97;101508.44;5029328;28;20402;-69
2023/08/13 00:19:50;;;;;;;2.70;2.13;;;;;;;22.80;41.84;101500.09;5028171;28;20390;-69
2023/08/13 00:22:16;;;;;;;3.53;2.08;;;;;;;22.79;42.15;101503.84;5029412;28;20381;-69
2023/08/13 00:24:42;;;;;;;3.57;1.93;;;;;;;22.77;41.90;101500.56;5030699;28;20412;-69
2023/08/13 00:27:07;;;;;;;2.63;2.00;;;;;;;22.70;41.94;101506.88;5029784;28;20386;-69
2023/08/13 00:29:33;;;;;;;2.27;1.90;;;;;;;22.61;42.22;101494.75;5030235;28;20371;-69
2023/08/13 00:31:58;;;;;;;3.67;2.10;;;;;;;22.67;42.25;101501.94;5029101;28;20481;-69
2023/08/13 00:34:24;;;;;;;4.20;2.30;;;;;;;22.64;42.19;101496.19;5029525;28;20389;-69
2023/08/13 00:36:49;;;;;;;3.87;2.10;;;;;;;22.59;42.59;101501.47;5030097;28;20395;-70
2023/08/13 00:39:15;;;;;;;3.88;2.20;;;;;;;22.57;42.39;101507.09;5030123;28;20393;-69
2023/08/13 00:41:40;;;;;;;3.40;2.40;;;;;;;22.60;42.34;101498.53;5030283;28;20375;-69
2023/08/13 00:44:06;;;;;;;3.20;2.30;;;;;;;22.67;42.23;101510.06;5030714;28;20379;-70
2023/08/13 00:46:32;;;;;;;3.40;2.23;;;;;;;22.58;42.25;101497.94;5030578;28;20371;-69
2023/08/13 00:48:59;;;;;;;2.67;1.92;;;;;;;22.47;42.53;101496.84;5030712;28;20398;-70
2023/08/13 00:51:25;;;;;;;3.60;2.20;;;;;;;22.38;42.87;101500.09;5030452;28;20375;-69
2023/08/13 00:53:51;;;;;;;2.17;1.85;;;;;;;22.37;43.08;101501.97;5030382;28;20386;-69
2023/08/13 00:56:17;;;;;;;4.13;2.10;;;;;;;22.45;42.78;101501.63;5029862;28;20409;-70
2023/08/13 00:58:43;;;;;;;3.50;2.25;;;;;;;22.47;42.62;101496.00;5029792;28;20405;-69
2023/08/13 01:01:10;;;;;;;3.13;2.20;;;;;;;22.47;42.66;101502.25;5030264;28;20851;-69
2023/08/13 01:03:39;;;;;;;2.47;1.93;;;;;;;22.50;42.63;101503.66;5030299;28;20378;-69
2023/08/13 01:06:15;;;;;;;3.10;2.20;;;;;;;22.52;42.70;101510.47;5029512;28;20397;-70
2023/08/13 01:08:59;;;;;;;3.20;2.20;;;;;;;22.49;42.44;101505.53;5030212;28;20421;-69
2023/08/13 01:11:45;;;;;;;5.40;2.33;;;;;;;22.46;42.53;101506.00;5030432;28;20719;-69
2023/08/13 01:14:32;;;;;;;2.97;2.20;;;;;;;22.49;42.53;101502.84;5028312;28;20871;-69
2023/08/13 01:17:00;;;;;;;3.10;2.30;;;;;;;22.52;42.71;101515.06;5030109;28;20466;-69
2023/08/13 01:19:26;;;;;;;3.33;2.30;;;;;;;22.46;42.47;101506.00;5029708;28;20395;-69
2023/08/13 01:21:51;;;;;;;2.47;2.13;;;;;;;22.43;42.83;101511.84;5029910;28;20386;-69
2023/08/13 01:24:17;;;;;;;3.37;2.20;;;;;;;22.34;42.98;101502.44;5029113;28;20449;-70
2023/08/13 01:26:51;;;;;;;2.37;1.83;;;;;;;22.32;43.42;101509.94;5030004;28;20378;-69
2023/08/13 01:29:29;;;;;;;2.97;2.38;;;;;;;22.35;43.23;101509.50;5029928;28;20937;-70
2023/08/13 01:32:00;;;;;;;5.18;2.33;;;;;;;22.37;43.28;101512.78;5029568;28;20886;-70
2023/08/13 01:34:25;;;;;;;4.35;2.28;;;;;;;22.25;43.29;101510.00;5029338;28;20390;-70
2023/08/13 01:36:51;;;;;;;2.80;2.17;;;;;;;22.13;43.70;101511.84;5029921;28;20394;-70
2023/08/13 01:39:17;;;;;;;4.57;2.17;;;;;;;22.08;44.12;101509.00;5029796;28;20382;-70
2023/08/13 01:41:54;;;;;;;5.03;2.22;;;;;;;22.00;43.87;101507.41;5029321;28;20393;-70
2023/08/13 01:44:20;;;;;;;3.33;2.33;;;;;;;22.03;43.73;101512.34;5032155;28;20374;-70
2023/08/13 01:46:45;;;;;;;3.95;2.40;;;;;;;22.01;44.18;101511.75;5033873;28;20382;-70
2023/08/13 01:49:11;;;;;;;4.72;2.10;;;;;;;21.92;44.38;101519.34;5033387;28;20462;-71
2023/08/13 01:51:36;;;;;;;3.13;2.37;;;;;;;21.87;44.27;101521.88;5033388;28;20386;-71
2023/08/13 01:54:02;;;;;;;3.50;2.10;;;;;;;21.89;44.51;101516.28;5033060;28;20378;-70
2023/08/13 01:56:27;;;;;;;2.70;2.30;;;;;;;21.90;44.38;101513.34;5033356;28;20913;-70
2023/08/13 01:58:53;;;;;;;3.03;2.33;;;;;;;21.84;44.33;101516.13;5033498;28;20378;-70
2023/08/13 02:01:18;;;;;;;4.30;2.30;;;;;;;21.73;44.55;101510.44;5033697;28;20727;-70
2023/08/13 02:03:44;;;;;;;4.40;2.30;;;;;;;21.72;44.72;101518.75;5033635;28;20378;-70
2023/08/13 02:06:09;;;;;;;3.90;2.50;;;;;;;21.68;44.66;101520.22;5033248;28;20823;-70
2023/08/13 02:08:35;;;;;;;4.27;2.67;;;;;;;21.63;44.76;101520.94;5033367;28;20389;-70
2023/08/13 02:11:00;;;;;;;3.37;2.60;;;;;;;21.57;45.21;101521.81;5033325;28;20401;-70
2023/08/13 02:13:26;;;;;;;4.80;3.10;;;;;;;21.47;45.44;101521.50;5033455;28;20383;-71
2023/08/13 02:15:51;;;;;;;3.97;3.07;;;;;;;21.47;45.60;101518.81;5033191;28;20532;-70
2023/08/13 02:18:16;;;;;;;7.43;3.73;;;;;;;21.43;45.70;101513.00;5033628;28;20439;-70
2023/08/13 02:20:42;;;;;;;5.27;3.27;;;;;;;21.36;45.87;101512.25;5033292;28;20382;-70
2023/08/13 02:23:07;;;;;;;3.70;2.50;;;;;;;21.31;46.12;101512.09;5032864;28;20731;-71
2023/08/13 02:25:33;;;;;;;3.75;2.50;;;;;;;21.18;46.41;101510.34;5033080;28;20406;-70
2023/08/13 02:27:58;;;;;;;3.47;2.57;;;;;;;21.02;46.74;101511.72;5033480;28;20389;-70
2023/08/13 02:30:24;;;;;;;6.40;2.60;;;;;;;20.97;46.88;101514.25;5033043;28;20922;-71
2023/08/13 02:32:49;;;;;;;4.97;2.60;;;;;;;20.90;47.21;101510.78;5033085;28;20382;-70
2023/08/13 02:35:15;;;;;;;4.30;2.40;;;;;;;20.85;47.30;101522.22;5032856;28;20396;-70
2023/08/13 02:37:40;;;;;;;3.50;2.60;;;;;;;20.81;47.44;101527.22;5032688;28;20802;-70
2023/08/13 02:40:06;;;;;;;3.43;2.40;;;;;;;20.76;47.40;101518.13;5032911;28;20386;-70
2023/08/13 02:42:33;;;;;;;3.38;2.60;;;;;;;20.75;47.73;101524.56;5032988;28;20452;-70
2023/08/13 02:44:58;;;;;;;3.03;2.58;;;;;;;20.75;47.46;101529.97;5032853;28;20393;-70
2023/08/13 02:47:24;;;;;;;3.55;2.40;;;;;;;20.74;47.65;101534.53;5032792;28;20842;-70
2023/08/13 02:49:50;;;;;;;4.95;2.88;;;;;;;20.70;47.70;101535.16;5032687;28;20382;-70
2023/08/13 02:52:16;;;;;;;3.13;2.30;;;;;;;20.66;47.73;101526.69;5032317;28;20379;-71
2023/08/13 02:54:41;;;;;;;4.32;2.50;;;;;;;20.66;47.70;101537.47;5031045;28;20471;-71
2023/08/13 02:57:07;;;;;;;5.57;2.30;;;;;;;20.58;47.84;101530.44;5032617;28;20879;-70
2023/08/13 02:59:32;;;;;;;3.40;2.50;;;;;;;20.58;48.06;101543.91;5032647;28;20394;-70
2023/08/13 03:01:58;;;;;;;4.07;2.50;;;;;;;20.49;48.24;101539.81;5032635;28;20421;-70
2023/08/13 03:04:23;;;;;;;4.23;2.40;;;;;;;20.47;48.27;101544.56;5032714;28;20370;-71
2023/08/13 03:06:49;;;;;;;4.00;2.53;;;;;;;20.40;48.50;101554.56;5032257;28;21007;-71
2023/08/13 03:09:20;;;;;;;5.07;2.63;;;;;;;20.33;48.75;101551.91;5032753;28;20396;-71
2023/08/13 03:11:46;;;;;;;4.70;2.88;;;;;;;20.32;48.87;101552.13;5032699;28;20458;-71
2023/08/13 03:14:12;;;;;;;4.25;2.80;;;;;;;20.20;49.25;101547.44;5033158;28;20382;-71
2023/08/13 03:16:37;;;;;;;3.67;2.75;;;;;;;20.15;49.40;101541.84;5032430;28;20398;-71
2023/08/13 03:19:03;;;;;;;3.87;2.47;;;;;;;20.18;49.51;101548.66;5032477;28;20378;-71
2023/08/13 03:21:28;;;;;;;4.57;2.50;;;;;;;20.19;49.58;101553.03;5032065;28;20382;-70
2023/08/13 03:23:54;;;;;;;3.63;2.70;;;;;;;20.19;49.46;101550.31;5032382;28;20382;-70
2023/08/13 03:26:19;;;;;;;3.97;2.50;;;;;;;20.21;49.69;101557.13;5032224;28;20789;-70
2023/08/13 03:28:45;;;;;;;4.00;2.73;;;;;;;20.16;49.73;101556.13;5032305;28;20375;-70
2023/08/13 03:31:11;;;;;;;3.30;2.50;;;;;;;20.19;49.66;101564.59;5032277;28;20406;-70
2023/08/13 03:33:36;;;;;;;4.15;2.65;;;;;;;20.28;49.32;101559.81;5029928;28;20375;-71
2023/08/13 03:36:03;;;;;;;4.07;2.60;;;;;;;20.32;49.33;101554.81;5015709;28;20508;-71
2023/08/13 03:38:28;;;;;;;4.40;2.75;;;;;;;20.22;49.74;101556.13;5018406;28;20402;-71
2023/08/13 03:40:56;;;;;;;4.38;2.72;;;;;;;20.09;50.10;101555.31;5013942;28;20489;-71
2023/08/13 03:43:21;;;;;;;4.65;2.65;;;;;;;19.94;50.77;101558.28;5010347;28;20395;-71
2023/08/13 03:45:47;;;;;;;3.75;2.60;;;;;;;19.89;50.74;101552.69;5010530;28;20402;-71
2023/08/13 03:48:12;;;;;;;4.70;2.40;;;;;;;19.86;50.92;101559.31;5010288;28;20391;-70
2023/08/13 03:50:42;;;;;;;3.93;2.60;;;;;;;19.83;50.97;101562.44;5010032;28;20380;-71
2023/08/13 03:53:08;;;;;;;4.00;2.53;;;;;;;19.76;51.19;101556.25;5011966;28;20391;-71
2023/08/13 03:55:34;;;;;;;3.97;2.67;;;;;;;19.82;51.06;101558.09;5022763;28;20735;-70
2023/08/13 03:57:59;;;;;;;5.45;2.60;;;;;;;19.77;51.16;101558.75;5031994;28;20402;-71
2023/08/13 04:00:25;;;;;;;4.77;2.70;;;;;;;19.72;51.38;101560.38;5030736;28;20378;-70
2023/08/13 04:02:50;;;;;;;4.67;2.70;;;;;;;19.75;51.40;101565.34;5031883;28;20390;-71
2023/08/13 04:05:16;;;;;;;4.97;2.63;;;;;;;19.71;51.44;101566.78;5030653;28;20394;-70
2023/08/13 04:07:42;;;;;;;5.13;2.80;;;;;;;19.77;51.49;101580.25;5030918;28;20367;-71
2023/08/13 04:10:07;;;;;;;3.60;2.63;;;;;;;19.75;51.60;101576.94;5031219;28;20374;-71
2023/08/13 04:12:33;;;;;;;3.30;2.88;;;;;;;19.87;51.25;101582.50;5030807;28;20370;-70
2023/08/13 04:14:58;;;;;;;5.60;3.53;;;;;;;19.96;51.02;101569.66;5031574;28;20386;-71
2023/08/13 04:17:24;;;;;;;7.03;4.20;;;;;;;20.00;51.08;101589.72;5031450;28;20403;-70
2023/08/13 04:19:50;;;;;;;6.43;4.23;;;;;;;19.99;50.99;101586.22;5031326;28;20745;-71
2023/08/13 04:22:15;;;;;;;5.13;3.72;;;;;;;20.09;50.70;101588.44;5031549;28;20477;-71
2023/08/13 04:24:41;;;;;;;5.47;3.83;;;;;;;20.13;50.65;101583.47;5031565;28;20382;-71
2023/08/13 04:27:06;;;;;;;7.50;4.70;;;;;;;20.15;50.65;101582.22;5031594;28;20378;-71
2023/08/13 04:29:32;;;;;;;7.50;4.57;;;;;;;20.20;50.66;101589.66;5031849;28;20444;-71
2023/08/13 04:31:57;;;;;;;7.25;4.40;;;;;;;20.18;50.65;101589.03;5030815;28;20909;-70
2023/08/13 04:34:23;;;;;;;6.50;3.90;;;;;;;20.17;50.82;101596.31;5031109;28;20387;-70
2023/08/13 04:36:49;;;;;;;6.80;4.15;;;;;;;20.14;50.95;101599.41;5031307;28;20398;-70
2023/08/13 04:39:15;;;;;;;7.00;4.63;;;;;;;20.11;51.06;101593.63;5030400;28;20398;-70
2023/08/13 04:41:40;;;;;;;7.20;4.60;;;;;;;19.99;51.27;101593.47;5030238;28;20386;-70
2023/08/13 04:44:06;;;;;;;5.70;4.20;;;;;;;19.96;51.45;101592.00;5028923;28;20413;-70
2023/08/13 04:46:32;;;;;;;7.20;4.57;;;;;;;20.03;51.44;101598.19;5029627;28;20390;-70
2023/08/13 04:48:58;;;;;;;5.65;3.78;;;;;;;20.00;51.67;101595.09;5029602;28;20378;-70
2023/08/13 04:51:23;;;;;;;8.43;5.70;;;;;;;20.16;51.24;101601.88;5029362;28;20414;-70
2023/08/13 04:53:49;;;;;;;12.48;7.63;;;;;;;20.21;51.10;101597.53;5030027;28;20390;-70
2023/08/13 04:56:14;;;;;;;11.50;5.90;;;;;;;20.16;51.42;101602.72;5030181;28;20402;-70
2023/08/13 04:58:41;;;;;;;9.90;6.28;;;;;;;20.17;51.42;101606.25;5030501;28;20465;-70
2023/08/13 05:01:06;;;;;;;8.32;4.30;;;;;;;20.16;51.54;101610.78;5029766;28;20385;-70
2023/08/13 05:03:32;;;;;;;5.67;3.57;;;;;;;19.94;52.24;101602.16;5030290;28;20716;-69
2023/08/13 05:05:57;;;;;;;6.93;3.90;;;;;;;19.75;53.04;101609.22;5029973;28;20378;-71
2023/08/13 05:08:23;;;;;;;4.95;3.90;;;;;;;19.78;52.76;101608.81;5029757;28;20473;-70
2023/08/13 05:10:49;;;;;;;5.27;3.30;;;;;;;19.84;52.79;101615.22;5029961;28;20391;-70
2023/08/13 05:13:14;;;;;;;4.57;3.35;;;;;;;19.93;52.49;101611.25;5030001;28;20857;-69
2023/08/13 05:15:40;;;;;;;5.43;3.50;;;;;;;20.01;52.34;101615.59;5029914;28;20930;-70
2023/08/13 05:18:06;;;;;;;4.38;3.38;;;;;;;20.14;52.13;101625.50;5029739;28;20460;-70
2023/08/13 05:20:32;;;;;;;6.60;3.30;;;;;;;20.20;51.95;101620.13;5030278;28;20398;-70
2023/08/13 05:22:58;;;;;;;5.72;3.25;;;;;;;20.29;51.87;101626.06;5030597;28;20413;-71
2023/08/13 05:25:23;;;;;;;5.38;3.00;;;;;;;20.35;51.79;101625.22;5030145;28;20378;-70
2023/08/13 05:27:49;;;;;;;4.50;3.13;;;;;;;20.23;52.12;101621.53;5029812;28;20374;-70
2023/08/13 05:30:14;;;;;;;5.75;3.72;;;;;;;20.08;52.54;101626.34;5029495;28;20389;-71
2023/08/13 05:32:40;;;;;;;7.07;4.30;;;;;;;20.08;52.89;101631.72;5029773;28;20469;-70
2023/08/13 05:35:06;;;;;;;5.85;4.32;;;;;;;20.33;52.42;101637.25;5029885;28;20382;-70
2023/08/13 05:37:32;;;;;;;7.65;4.38;;;;;;;20.52;51.98;101632.84;5029747;28;20402;-70
2023/08/13 05:39:58;;;;;;;7.25;4.03;;;;;;;20.60;51.68;101635.28;5028774;28;20552;-70
2023/08/13 05:42:23;;;;;;;4.07;3.37;;;;;;;20.68;51.79;101637.75;5029940;28;20390;-70
2023/08/13 05:44:48;;;;;;;7.43;3.87;;;;;;;20.69;51.91;101636.72;5029777;28;20480;-70
2023/08/13 05:47:14;;;;;;;5.10;3.47;;;;;;;20.74;51.88;101633.38;5029736;28;20393;-70
2023/08/13 05:49:40;;;;;;;5.10;3.50;;;;;;;20.83;51.84;101644.72;5027244;28;20386;-70
2023/08/13 05:52:05;;;;;;;5.50;3.63;;;;;;;20.90;51.81;101638.25;5029711;28;20404;-70
2023/08/13 05:54:31;;;;;;;6.23;3.60;;;;;;;20.93;51.94;101642.41;5029736;28;20469;-70
2023/08/13 05:56:56;;;;;;;6.13;3.10;;;;;;;21.04;52.01;101643.59;5029543;28;20816;-70
2023/08/13 05:59:22;;;;;;;4.30;3.57;;;;;;;21.15;51.71;101641.00;5029153;28;20394;-70
2023/08/13 06:01:48;;;;;;;4.80;3.40;;;;;;;21.31;51.40;101638.84;5029536;28;20382;-70
2023/08/13 06:04:13;;;;;;;5.40;3.30;;;;;;;21.39;51.60;101638.56;5029530;28;20378;-70
2023/08/13 06:06:39;;;;;;;4.57;3.60;;;;;;;21.62;51.25;101637.97;5029342;28;20381;-70
2023/08/13 06:09:05;;;;;;;4.07;3.30;;;;;;;21.76;50.92;101630.59;5029550;28;20386;-70
2023/08/13 06:11:31;;;;;;;5.90;3.70;;;;;;;21.94;50.79;101636.00;5029700;28;20374;-71
2023/08/13 06:13:57;;;;;;;5.33;3.53;;;;;;;22.06;50.71;101640.69;5029037;28;20720;-69
2023/08/13 06:16:22;;;;;;;4.40;3.35;;;;;;;22.19;50.58;101637.84;5029633;28;20402;-69
2023/08/13 06:18:48;;;;;;;6.00;3.40;;;;;;;22.22;50.91;101637.41;5029721;28;20536;-70
2023/08/13 06:21:13;;;;;;;6.60;3.53;;;;;;;22.32;50.68;101636.88;5030012;28;20688;-70
2023/08/13 06:23:38;;;;;;;4.45;3.70;;;;;;;22.47;50.38;101641.91;5030264;28;20398;-70
2023/08/13 06:26:06;;;;;;;4.73;3.63;;;;;;;22.58;50.56;101643.00;5029904;28;20704;-71
2023/08/13 06:28:32;;;;;;;8.27;4.20;;;;;;;22.68;50.17;101644.13;5029488;28;20397;-71
2023/08/13 06:30:57;;;;;;;6.13;3.77;;;;;;;22.83;50.22;101645.59;5032243;28;20804;-70
2023/08/13 06:33:23;;;;;;;7.07;3.90;;;;;;;22.96;49.78;101641.88;5033398;28;20421;-70
2023/08/13 06:35:48;;;;;;;7.87;3.63;;;;;;;23.09;49.60;101649.84;5033433;28;20901;-70
2023/08/13 06:38:14;;;;;;;7.03;4.43;;;;;;;23.12;49.69;101645.84;5032885;28;20406;-70
2023/08/13 06:40:40;;;;;;;5.72;4.05;;;;;;;23.25;49.45;101651.06;5032604;28;20739;-71
2023/08/13 06:43:05;;;;;;;5.30;4.07;;;;;;;23.36;49.33;101661.06;5033283;28;20488;-71
2023/08/13 06:45:31;;;;;;;7.47;4.23;;;;;;;23.39;49.18;101649.81;5033201;28;20883;-71
2023/08/13 06:47:57;;;;;;;6.73;4.20;;;;;;;23.45;49.08;101650.75;5033162;28;20384;-71
2023/08/13 06:50:23;;;;;;;5.63;3.85;;;;;;;23.54;49.51;101646.63;5033042;28;20389;-70
2023/08/13 06:52:48;;;;;;;6.70;4.63;;;;;;;23.75;49.27;101644.41;5033347;28;20381;-71
2023/08/13 06:55:14;;;;;;;8.43;4.50;;;;;;;23.81;49.21;101641.59;5028645;28;20403;-71
2023/08/13 06:57:39;;;;;;;6.73;4.33;;;;;;;23.90;49.10;101646.69;5023326;28;20434;-70
2023/08/13 07:00:05;;;;;;;6.78;4.70;;;;;;;23.84;49.48;101645.72;5021640;28;20441;-71
2023/08/13 07:02:31;;;;;;;6.25;4.47;;;;;;;23.92;49.58;101641.84;5017005;28;20400;-71
2023/08/13 07:04:56;;;;;;;6.80;5.00;;;;;;;24.28;48.99;101648.03;5020062;28;20409;-71
2023/08/13 07:07:22;;;;;;;5.67;4.87;;;;;;;24.44;48.38;101644.59;5018124;28;20425;-71
2023/08/13 07:09:47;;;;;;;6.90;4.85;;;;;;;24.54;48.22;101647.53;5021464;28;20412;-71
2023/08/13 07:12:13;;;;;;;7.60;5.20;;;;;;;24.62;47.97;101651.75;5029490;28;20796;-71
2023/08/13 07:14:39;;;;;;;12.05;5.47;;;;;;;24.81;47.47;101655.06;5029644;28;20469;-71
2023/08/13 07:17:04;;;;;;;6.33;4.63;;;;;;;24.97;46.70;101651.59;5029704;28;20460;-71
2023/08/13 07:19:30;;;;;;;8.10;5.33;;;;;;;25.10;46.32;101653.19;5029919;28;20484;-72
2023/08/13 07:21:55;;;;;;;6.57;5.00;;;;;;;25.27;45.85;101655.94;5031786;28;20375;-71
2023/08/13 07:24:21;;;;;;;5.77;4.83;;;;;;;25.46;45.06;101644.81;5032016;28;20381;-71
2023/08/13 07:26:46;;;;;;;8.23;5.33;;;;;;;25.40;45.36;101652.06;5031803;28;20366;-72
2023/08/13 07:29:12;;;;;;;7.77;5.57;;;;;;;25.46;45.02;101659.25;5032273;28;20573;-71
2023/08/13 07:31:38;;;;;;;7.93;4.75;;;;;;;25.74;44.90;101671.06;5064215;28;20978;-71
2023/08/13 07:34:03;;;;;;;6.43;4.63;;;;;;;25.98;43.44;101660.03;5037090;28;20380;-71
2023/08/13 07:36:29;;;;;;;6.30;4.70;;;;;;;26.11;42.96;101656.97;5042144;28;20883;-71
2023/08/13 07:38:54;;;;;;;7.53;4.97;;;;;;;26.04;43.18;101659.03;5039409;28;20496;-72
2023/08/13 07:41:20;;;;;;;6.78;4.68;;;;;;;26.44;42.83;101660.63;5045761;28;20440;-72
2023/08/13 07:43:45;;;;;;;5.90;4.60;;;;;;;26.63;41.44;101653.81;5048967;28;20841;-71
2023/08/13 07:46:11;;;;;;;7.87;4.83;;;;;;;26.73;40.74;101658.53;5031821;28;20422;-71
2023/08/13 07:48:36;;;;;;;9.57;4.43;;;;;;;26.76;41.17;101657.19;5031843;28;20459;-71
2023/08/13 07:51:02;;;;;;;7.18;4.68;;;;;;;26.87;40.32;101653.53;5031687;28;20375;-70
2023/08/13 07:53:29;;;;;;;6.82;5.05;;;;;;;26.70;40.39;101653.59;5031639;28;20477;-70
2023/08/13 07:55:54;;;;;;;6.78;4.47;;;;;;;26.75;40.42;101658.28;5030797;28;20386;-70
2023/08/13 07:58:20;;;;;;;7.47;4.60;;;;;;;27.01;39.94;101645.75;5048714;28;20418;-72
2023/08/13 08:00:45;;;;;;;7.00;4.47;;;;;;;27.17;39.47;101647.56;5031478;28;20409;-70
2023/08/13 08:03:11;;;;;;;7.18;4.60;;;;;;;27.34;39.57;101652.06;5032284;28;20394;-70
2023/08/13 08:05:36;;;;;;;8.60;4.70;;;;;;;27.33;40.00;101651.22;5031383;28;20390;-70
2023/08/13 08:08:02;;;;;;;10.37;4.80;;;;;;;27.18;40.05;101649.19;5031184;28;20720;-70
2023/08/13 08:10:28;;;;;;;6.07;5.05;;;;;;;27.16;39.74;101653.25;5062643;28;20429;-70
2023/08/13 08:12:54;;;;;;;6.43;4.63;;;;;;;26.91;40.13;101646.50;5030883;28;20831;-70
2023/08/13 08:15:21;;;;;;;7.05;5.00;;;;;;;27.03;39.49;101649.88;5030967;28;20885;-71
2023/08/13 08:17:47;;;;;;;8.77;4.82;;;;;;;27.17;39.93;101649.44;5030645;28;20870;-69
2023/08/13 08:20:13;;;;;;;7.60;5.10;;;;;;;27.63;39.22;101645.19;5028019;28;20477;-70
2023/08/13 08:22:38;;;;;;;7.07;4.83;;;;;;;27.63;39.16;101633.50;5030473;28;20478;-70
2023/08/13 08:25:10;;;;;;;7.57;5.10;;;;;;;27.75;39.14;101630.56;5029977;28;20390;-71
2023/08/13 08:27:37;;;;;;;7.20;5.00;;;;;;;27.82;39.26;101626.53;5013215;28;20487;-70
2023/08/13 08:30:03;;;;;;;5.07;4.50;;;;;;;27.90;38.91;101624.41;5011172;28;20400;-71
2023/08/13 08:32:30;;;;;;;5.95;4.90;;;;;;;27.75;38.73;101628.66;5010454;28;20432;-70
2023/08/13 08:34:55;;;;;;;6.82;4.93;;;;;;;27.91;38.25;101623.31;5010868;28;20411;-71
2023/08/13 08:37:21;;;;;;;8.17;5.00;;;;;;;27.72;38.78;101622.94;5011065;28;20404;-71
2023/08/13 08:39:49;;;;;;;7.28;4.93;;;;;;;27.84;38.84;101618.91;5010045;28;20426;-70
2023/08/13 08:42:14;;;;;;;9.32;5.30;;;;;;;28.06;38.83;101626.13;5010837;28;20929;-71
2023/08/13 08:44:44;;;;;;;7.37;5.10;;;;;;;28.25;39.11;101617.47;5010954;28;20391;-71
2023/08/13 08:47:10;;;;;;;7.20;5.30;;;;;;;28.34;39.06;101618.59;5010729;28;20391;-71
2023/08/13 08:49:36;;;;;;;6.47;4.70;;;;;;;28.47;38.58;101606.38;5010271;28;20400;-70
2023/08/13 08:52:02;;;;;;;8.18;5.00;;;;;;;28.39;38.07;101615.91;5010483;28;20388;-70
2023/08/13 08:54:28;;;;;;;6.97;4.63;;;;;;;28.52;38.07;101606.38;5010552;28;20489;-71
2023/08/13 08:56:53;;;;;;;6.27;4.93;;;;;;;28.53;38.09;101605.31;5010977;28;20775;-71
2023/08/13 08:59:20;;;;;;;7.40;4.93;;;;;;;28.83;37.53;101609.19;5010344;28;20857;-70
2023/08/13 09:01:45;;;;;;;6.97;4.90;;;;;;;28.77;37.21;101603.75;5011238;28;20376;-70
2023/08/13 09:04:11;;;;;;;6.40;4.90;;;;;;;28.70;37.32;101605.94;5010742;28;20407;-70
2023/08/13 09:07:03;;;;;;;6.40;4.83;;;;;;;28.66;37.15;101598.53;5011193;28;20412;-70
2023/08/13 09:09:29;;;;;;;6.68;4.60;;;;;;;28.67;36.92;101598.28;5010301;28;20450;-69
2023/08/13 09:11:55;;;;;;;7.03;4.30;;;;;;;28.83;36.79;101609.19;5011555;28;20415;-69
2023/08/13 09:14:22;;;;;;;6.05;4.47;;;;;;;28.81;36.08;101595.84;5010943;28;20471;-69
2023/08/13 09:16:49;;;;;;;4.85;3.95;;;;;;;28.93;35.79;101606.47;5010911;28;20507;-69
2023/08/13 09:19:16;;;;;;;6.07;4.30;;;;;;;28.92;35.96;101589.28;5010090;28;20391;-69
2023/08/13 09:21:57;;;;;;;4.57;3.90;;;;;;;29.26;35.21;101588.78;5010387;28;20395;-69
2023/08/13 09:24:41;;;;;;;4.88;3.97;;;;;;;29.24;35.53;101599.13;5009997;28;20875;-71
2023/08/13 09:27:08;;;;;;;6.53;4.30;;;;;;;29.06;35.91;101592.28;5009860;28;20478;-71
2023/08/13 09:29:37;;;;;;;5.22;4.00;;;;;;;29.24;35.57;101593.66;5010321;28;20407;-72
2023/08/13 09:32:03;;;;;;;5.85;4.22;;;;;;;29.38;35.18;101585.72;5010247;28;20555;-70
2023/08/13 09:34:30;;;;;;;4.83;4.00;;;;;;;29.28;35.47;101589.31;5009866;28;20893;-70
2023/08/13 09:36:57;;;;;;;5.60;4.03;;;;;;;29.28;35.42;101583.84;5009590;28;20418;-71
2023/08/13 09:39:27;;;;;;;5.95;3.67;;;;;;;29.44;35.33;101590.09;5010196;28;20811;-71
2023/08/13 09:41:54;;;;;;;5.80;4.13;;;;;;;29.51;35.22;101578.88;5009932;28;20847;-71
2023/08/13 09:44:24;;;;;;;5.82;4.43;;;;;;;29.48;35.87;101576.72;5010124;28;20378;-70
2023/08/13 09:46:53;;;;;;;5.43;4.10;;;;;;;29.32;35.31;101581.38;5010094;28;20713;-71
2023/08/13 09:49:21;;;;;;;5.45;4.00;;;;;;;29.19;35.78;101581.94;5009977;28;20800;-70
2023/08/13 09:51:50;;;;;;;4.93;4.07;;;;;;;29.22;35.72;101578.66;5000962;28;20867;-69
2023/08/13 09:54:28;;;;;;;4.65;3.80;;;;;;;29.35;35.33;101573.47;5009441;28;20388;-70
2023/08/13 09:57:00;;;;;;;6.78;3.97;;;;;;;29.63;35.50;101571.19;5006139;28;20422;-70
2023/08/13 09:59:27;;;;;;;6.20;4.68;;;;;;;29.66;35.04;101567.09;5009214;28;20752;-70
2023/08/13 10:01:54;;;;;;;4.43;3.92;;;;;;;29.63;35.28;101575.84;5008481;28;20383;-70
2023/08/13 10:04:21;;;;;;;6.30;4.20;;;;;;;29.55;35.90;101569.84;5006960;28;20375;-70
2023/08/13 10:06:50;;;;;;;7.45;4.35;;;;;;;29.87;35.65;101560.50;5013062;28;20744;-71
2023/08/13 10:09:16;;;;;;;7.60;4.40;;;;;;;30.07;35.74;101561.47;5012164;28;20422;-70
2023/08/13 10:11:42;;;;;;;6.13;4.20;;;;;;;30.14;35.79;101551.06;5013185;28;20398;-70
2023/08/13 10:14:08;;;;;;;4.75;4.00;;;;;;;30.20;35.79;101555.41;5012864;28;20396;-71
2023/08/13 10:16:34;;;;;;;8.30;4.87;;;;;;;30.26;35.73;101556.19;5013211;28;20411;-71
2023/08/13 10:19:01;;;;;;;8.73;4.30;;;;;;;30.31;35.49;101556.16;5013371;28;20434;-71
2023/08/13 10:21:34;;;;;;;6.68;4.40;;;;;;;30.52;35.55;101556.88;5011317;28;20399;-71
2023/08/13 10:24:02;;;;;;;6.37;4.37;;;;;;;30.64;35.33;101551.84;5012580;28;20864;-71
2023/08/13 10:26:27;;;;;;;7.47;4.53;;;;;;;30.61;34.74;101548.88;5011862;28;20387;-71
2023/08/13 10:28:53;;;;;;;6.07;4.30;;;;;;;30.55;34.46;101544.56;5012695;28;20492;-71
2023/08/13 10:31:29;;;;;;;6.35;3.80;;;;;;;30.67;34.01;101536.81;5012861;28;20502;-71
2023/08/13 10:34:10;;;;;;;5.77;3.90;;;;;;;30.78;33.17;101540.28;5010608;28;20407;-71
2023/08/13 10:36:53;;;;;;;4.90;3.80;;;;;;;30.76;32.59;101542.50;5009032;28;20414;-70
2023/08/13 10:39:41;;;;;;;5.93;3.83;;;;;;;30.60;33.15;101542.59;5011239;28;20734;-71
2023/08/13 10:42:33;;;;;;;6.63;3.80;;;;;;;30.68;33.04;101535.69;5012121;28;20384;-71
2023/08/13 10:45:06;;;;;;;4.93;3.63;;;;;;;30.67;33.01;101534.88;5009787;28;20478;-70
2023/08/13 10:47:49;;;;;;;6.25;4.50;;;;;;;30.71;33.29;101537.06;5012531;28;20396;-71
2023/08/13 10:50:25;;;;;;;4.88;3.63;;;;;;;30.81;33.38;101528.72;5010057;28;20392;-70
2023/08/13 10:52:52;;;;;;;5.13;3.50;;;;;;;31.06;32.83;101525.81;5008451;28;20470;-70
2023/08/13 10:55:21;;;;;;;7.70;3.83;;;;;;;31.10;32.55;101522.47;5011606;28;20457;-71
2023/08/13 10:57:54;;;;;;;4.47;3.75;;;;;;;31.06;32.54;101525.81;5011792;28;20768;-71
2023/08/13 11:00:25;;;;;;;5.47;3.63;;;;;;;30.97;32.22;101523.97;5011366;28;20407;-70
2023/08/13 11:02:58;;;;;;;7.85;4.00;;;;;;;30.99;32.73;101519.03;5011891;28;20419;-71
2023/08/13 11:05:23;;;;;;;7.93;3.90;;;;;;;31.05;32.52;101515.94;5012477;28;20406;-70
2023/08/13 11:07:52;;;;;;;5.97;3.95;;;;;;;31.27;32.38;101511.91;5012972;28;20964;-70
2023/08/13 11:10:19;;;;;;;6.63;3.72;;;;;;;31.43;31.90;101509.81;5012409;28;20448;-70
2023/08/13 11:12:46;;;;;;;5.75;3.85;;;;;;;31.37;32.14;101517.28;5012066;28;20404;-70
2023/08/13 11:15:12;;;;;;;6.20;3.85;;;;;;;31.44;31.95;101505.97;5011194;28;20395;-70
2023/08/13 11:17:46;;;;;;;6.53;4.00;;;;;;;31.56;32.19;101509.13;5012292;28;20762;-71
2023/08/13 11:20:17;;;;;;;6.55;4.10;;;;;;;31.57;31.86;101501.72;5012141;28;20414;-70
2023/08/13 11:22:42;;;;;;;4.80;4.07;;;;;;;31.67;31.86;101498.84;5010553;28;20735;-70